Libre — H9PF — position and weather

sailwx.info

Track history (hours):
 
Tides and Currents Weather Stations Pressure Air Temp Water Temp Dewpoint Dewpoint Depression Visibility Wind Speed Wind Dir Waves Ship Positions

Libre

Last reported at 2018-Jan-05 00:22 UTC. Time now 2018-Feb-19 20:21 UTC.
Position N 38°40' W 030°51'.
Warning: this ship's position is 45 days out of date.

Length 190 m; draft 6 m.

Type: Cargo ship. MMSI: 352486000.

Date/timePositionNaut miles runAvg speedWind from/ knotsBaromVisibWave heightAir tempDewpointWater temp
2018-Jan-05 00:22N 38°40' W 030°51'410.4
2018-Jan-05 00:00N 38°39' W 030°46'510.6
2018-Jan-04 23:30N 38°38' W 030°40'510.9
2018-Jan-04 23:01N 38°36' W 030°33'510.6
2018-Jan-04 22:30N 38°35' W 030°26'611.2
2018-Jan-04 22:00N 38°34' W 030°19'611.2
2018-Jan-04 21:30N 38°32' W 030°12'611.2
2018-Jan-04 21:00N 38°31' W 030°05'611.2
2018-Jan-04 20:31N 38°30' W 029°59'611.3
2018-Jan-04 20:00N 38°28' W 029°52'611.4
2018-Jan-04 19:30N 38°27' W 029°45'611.8
2018-Jan-04 19:01N 38°25' W 029°37'611.4
2018-Jan-04 18:30N 38°24' W 029°30'511.0
2018-Jan-04 18:00N 38°23' W 029°23'510.4
2018-Jan-04 17:30N 38°21' W 029°17'611.1
2018-Jan-04 17:00N 38°20' W 029°10'611.2
2018-Jan-04 16:31N 38°19' W 029°03'510.7
2018-Jan-04 16:00N 38°18' W 028°56'510.6
2018-Jan-04 15:30N 38°16' W 028°50'510.6
2018-Jan-04 15:00N 38°15' W 028°43'510.5
2018-Jan-04 14:30N 38°13' W 028°37'510.4
2018-Jan-04 14:00N 38°12' W 028°31'510.2
2018-Jan-04 13:30N 38°11' W 028°24'5 9.9
2018-Jan-04 13:00N 38°10' W 028°18'510.7
2018-Jan-04 12:31N 38°08' W 028°12'510.9
2018-Jan-04 12:00N 38°07' W 028°05'510.9
2018-Jan-04 11:30N 38°06' W 027°58'510.6
2018-Jan-04 11:00N 38°05' W 027°51'510.8
2018-Jan-04 10:30N 38°03' W 027°45'611.3
2018-Jan-04 10:00N 38°02' W 027°38'510.9
2018-Jan-04 09:30N 38°01' W 027°31'510.9
2018-Jan-04 09:00N 37°59' W 027°24'510.6
2018-Jan-04 08:30N 37°58' W 027°18'611.2
2018-Jan-04 08:00N 37°56' W 027°11'611.6
2018-Jan-04 07:30N 37°55' W 027°04'611.6
2018-Jan-04 07:00N 37°54' W 026°57'611.4
2018-Jan-04 06:30N 37°52' W 026°50'611.7
2018-Jan-04 06:00N 37°51' W 026°43'611.5
2018-Jan-04 05:30N 37°50' W 026°35'612.0
2018-Jan-04 05:00N 37°48' W 026°28'612.2
2018-Jan-04 04:30N 37°47' W 026°21'612.2
2018-Jan-04 04:00N 37°45' W 026°13'611.9
2018-Jan-04 03:30N 37°44' W 026°06'612.4
2018-Jan-04 03:00N 37°42' W 025°58'612.8
2018-Jan-04 02:30N 37°40' W 025°51'612.3
2018-Jan-04 02:01N 37°39' W 025°43'611.6
2018-Jan-04 01:30N 37°38' W 025°36'612.3
2018-Jan-04 01:00N 37°37' W 025°28'612.5
2018-Jan-04 00:30N 37°36' W 025°20'612.3
2018-Jan-04 00:01N 37°35' W 025°13'612.3
2018-Jan-03 23:30N 37°34' W 025°05'612.3
2018-Jan-03 23:00N 37°34' W 024°57'612.5
2018-Jan-03 22:30N 37°33' W 024°49'612.7
2018-Jan-03 22:00N 37°33' W 024°41'612.6
2018-Jan-03 21:30N 37°32' W 024°34'612.2
2018-Jan-03 21:00N 37°31' W 024°26'612.1
2018-Jan-03 20:30N 37°30' W 024°18'612.0
2018-Jan-03 20:00N 37°30' W 024°11'612.1
2018-Jan-03 19:30N 37°29' W 024°03'612.2
2018-Jan-03 19:01N 37°28' W 023°56'611.9
2018-Jan-03 18:30N 37°28' W 023°48'612.1
2018-Jan-03 18:00N 37°27' W 023°41'612.1
2018-Jan-03 17:30N 37°27' W 023°33'1512.4
2018-Jan-03 16:19N 37°25' W 023°14'412.2
2018-Jan-03 15:58N 37°24' W 023°09'612.6
2018-Jan-03 15:29N 37°24' W 023°01'2912.6
2018-Jan-03 13:11N 37°21' W 022°25'912.8
2018-Jan-03 12:28N 37°20' W 022°14'36412.6
2018-Jan-02 07:34N 36°41' W 014°40'112.5
2018-Jan-02 07:30N 36°41' W 014°39'612.1
2018-Jan-02 07:00N 36°40' W 014°32'612.4
2018-Jan-02 06:31N 36°40' W 014°24'712.1
2018-Jan-02 05:55N 36°39' W 014°15'12812.2
2018-Jan-01 19:22N 36°25' W 011°36'611.9
2018-Jan-01 18:54N 36°25' W 011°30'9711.7
2018-Jan-01 10:37N 36°15' W 009°30'1211.7
2018-Jan-01 09:33N 36°13' W 009°14'17612.6
2017-Dec-31 19:35N 35°58' W 005°38'210.5
2017-Dec-31 19:23N 35°58' W 005°35'410.3
2017-Dec-31 19:00N 35°60' W 005°30'5 9.6
2017-Dec-31 18:29N 36°02' W 005°25'6 1.4
2017-Dec-31 14:28N 36°07' W 005°22'0 0.0
2017-Dec-31 13:58N 36°07' W 005°22'0 0.0
2017-Dec-31 13:28N 36°07' W 005°22'0 0.1
2017-Dec-31 12:58N 36°07' W 005°22'0 0.0
2017-Dec-31 07:16N 36°07' W 005°22'0 0.0
2017-Dec-31 06:58N 36°07' W 005°22'0 0.0
2017-Dec-31 06:28N 36°07' W 005°22'0 0.0
2017-Dec-31 05:06N 36°07' W 005°22'0 0.1
2017-Dec-31 05:00N 36°07' W 005°22'0 0.0
2017-Dec-31 03:39N 36°07' W 005°22'0 0.2
2017-Dec-31 03:28N 36°07' W 005°22'0 0.1
2017-Dec-31 03:00N 36°07' W 005°22'0 0.1
2017-Dec-31 01:55N 36°07' W 005°22'0 0.1
2017-Dec-31 01:29N 36°07' W 005°22'0 0.0
2017-Dec-31 01:00N 36°07' W 005°22'0 1.0
2017-Dec-31 00:30N 36°06' W 005°22'2 5.0
2017-Dec-31 00:00N 36°06' W 005°19'1 2.7
2017-Dec-30 23:30N 36°06' W 005°17'1 1.7
2017-Dec-30 23:00N 36°07' W 005°17'3 5.9
2017-Dec-30 22:30N 36°10' W 005°15'3 1.4
2017-Dec-30 20:29N 36°10' W 005°12'1 1.1
2017-Dec-30 19:56N 36°10' W 005°11'1 1.9
2017-Dec-30 19:30N 36°10' W 005°10'3 4.9
2017-Dec-30 18:49N 36°10' W 005°06'3 1.0
2017-Dec-30 15:56N 36°08' W 005°07'2 3.2
2017-Dec-30 15:28N 36°07' W 005°09'3 6.9
2017-Dec-30 15:00N 36°05' W 005°13'1 3.0
2017-Dec-30 14:30N 36°05' W 005°14'510.0
2017-Dec-30 14:00N 36°06' W 005°08'  
2017-Dec-26 23:06N 36°37' E 013°60'112.4
2017-Dec-26 23:00N 36°36' E 014°01'612.4
2017-Dec-26 22:30N 36°34' E 014°09'612.5
2017-Dec-26 22:00N 36°32' E 014°16'612.4
2017-Dec-26 21:30N 36°31' E 014°24'612.1
2017-Dec-26 21:00N 36°29' E 014°31'611.7
2017-Dec-26 20:30N 36°29' E 014°38'611.4
2017-Dec-26 20:00N 36°29' E 014°45'9111.2
2017-Dec-26 11:52N 37°26' E 016°15'412.0
2017-Dec-26 11:30N 37°29' E 016°19'611.4
2017-Dec-26 11:00N 37°33' E 016°24'8212.4
2017-Dec-26 04:25N 38°33' E 017°34'613.2
2017-Dec-26 03:59N 38°37' E 017°39'612.7
2017-Dec-26 03:30N 38°41' E 017°44'1012.6
2017-Dec-26 02:44N 38°48' E 017°53'513.2
2017-Dec-26 02:20N 38°52' E 017°57'513.0
2017-Dec-26 01:57N 38°56' E 018°02'613.1
2017-Dec-26 01:30N 39°00' E 018°07'913.1
2017-Dec-26 00:48N 39°07' E 018°15'413.3
2017-Dec-26 00:30N 39°10' E 018°18'  
Track history (hours):
 
Tides and Currents Weather Stations Pressure Air Temp Water Temp Dewpoint Dewpoint Depression Visibility Wind Speed Wind Dir Waves Ship Positions

Libre

Last reported at 2018-Jan-05 00:22 UTC. Time now 2018-Feb-19 20:21 UTC.
Position N 38°40' W 030°51'.
Warning: this ship's position is 45 days out of date.

Length 190 m; draft 6 m.

Type: Cargo ship. MMSI: 352486000.

Date/timePositionNaut miles runAvg speedWind from/ knotsBaromVisibWave heightAir tempDewpointWater temp
2018-Jan-05 00:22N 38°40' W 030°51'410.4
2018-Jan-05 00:00N 38°39' W 030°46'510.6
2018-Jan-04 23:30N 38°38' W 030°40'510.9
2018-Jan-04 23:01N 38°36' W 030°33'510.6
2018-Jan-04 22:30N 38°35' W 030°26'611.2
2018-Jan-04 22:00N 38°34' W 030°19'611.2
2018-Jan-04 21:30N 38°32' W 030°12'611.2
2018-Jan-04 21:00N 38°31' W 030°05'611.2
2018-Jan-04 20:31N 38°30' W 029°59'611.3
2018-Jan-04 20:00N 38°28' W 029°52'611.4
2018-Jan-04 19:30N 38°27' W 029°45'611.8
2018-Jan-04 19:01N 38°25' W 029°37'611.4
2018-Jan-04 18:30N 38°24' W 029°30'511.0
2018-Jan-04 18:00N 38°23' W 029°23'510.4
2018-Jan-04 17:30N 38°21' W 029°17'611.1
2018-Jan-04 17:00N 38°20' W 029°10'611.2
2018-Jan-04 16:31N 38°19' W 029°03'510.7
2018-Jan-04 16:00N 38°18' W 028°56'510.6
2018-Jan-04 15:30N 38°16' W 028°50'510.6
2018-Jan-04 15:00N 38°15' W 028°43'510.5
2018-Jan-04 14:30N 38°13' W 028°37'510.4
2018-Jan-04 14:00N 38°12' W 028°31'510.2
2018-Jan-04 13:30N 38°11' W 028°24'5 9.9
2018-Jan-04 13:00N 38°10' W 028°18'510.7
2018-Jan-04 12:31N 38°08' W 028°12'510.9
2018-Jan-04 12:00N 38°07' W 028°05'510.9
2018-Jan-04 11:30N 38°06' W 027°58'510.6
2018-Jan-04 11:00N 38°05' W 027°51'510.8
2018-Jan-04 10:30N 38°03' W 027°45'611.3
2018-Jan-04 10:00N 38°02' W 027°38'510.9
2018-Jan-04 09:30N 38°01' W 027°31'510.9
2018-Jan-04 09:00N 37°59' W 027°24'510.6
2018-Jan-04 08:30N 37°58' W 027°18'611.2
2018-Jan-04 08:00N 37°56' W 027°11'611.6
2018-Jan-04 07:30N 37°55' W 027°04'611.6
2018-Jan-04 07:00N 37°54' W 026°57'611.4
2018-Jan-04 06:30N 37°52' W 026°50'611.7
2018-Jan-04 06:00N 37°51' W 026°43'611.5
2018-Jan-04 05:30N 37°50' W 026°35'612.0
2018-Jan-04 05:00N 37°48' W 026°28'612.2
2018-Jan-04 04:30N 37°47' W 026°21'612.2
2018-Jan-04 04:00N 37°45' W 026°13'611.9
2018-Jan-04 03:30N 37°44' W 026°06'612.4
2018-Jan-04 03:00N 37°42' W 025°58'612.8
2018-Jan-04 02:30N 37°40' W 025°51'612.3
2018-Jan-04 02:01N 37°39' W 025°43'611.6
2018-Jan-04 01:30N 37°38' W 025°36'612.3
2018-Jan-04 01:00N 37°37' W 025°28'612.5
2018-Jan-04 00:30N 37°36' W 025°20'612.3
2018-Jan-04 00:01N 37°35' W 025°13'612.3
2018-Jan-03 23:30N 37°34' W 025°05'612.3
2018-Jan-03 23:00N 37°34' W 024°57'612.5
2018-Jan-03 22:30N 37°33' W 024°49'612.7
2018-Jan-03 22:00N 37°33' W 024°41'612.6
2018-Jan-03 21:30N 37°32' W 024°34'612.2
2018-Jan-03 21:00N 37°31' W 024°26'612.1
2018-Jan-03 20:30N 37°30' W 024°18'612.0
2018-Jan-03 20:00N 37°30' W 024°11'612.1
2018-Jan-03 19:30N 37°29' W 024°03'612.2
2018-Jan-03 19:01N 37°28' W 023°56'611.9
2018-Jan-03 18:30N 37°28' W 023°48'612.1
2018-Jan-03 18:00N 37°27' W 023°41'612.1
2018-Jan-03 17:30N 37°27' W 023°33'1512.4
2018-Jan-03 16:19N 37°25' W 023°14'412.2
2018-Jan-03 15:58N 37°24' W 023°09'612.6
2018-Jan-03 15:29N 37°24' W 023°01'2912.6
2018-Jan-03 13:11N 37°21' W 022°25'912.8
2018-Jan-03 12:28N 37°20' W 022°14'36412.6
2018-Jan-02 07:34N 36°41' W 014°40'112.5
2018-Jan-02 07:30N 36°41' W 014°39'612.1
2018-Jan-02 07:00N 36°40' W 014°32'612.4
2018-Jan-02 06:31N 36°40' W 014°24'712.1
2018-Jan-02 05:55N 36°39' W 014°15'12812.2
2018-Jan-01 19:22N 36°25' W 011°36'611.9
2018-Jan-01 18:54N 36°25' W 011°30'9711.7
2018-Jan-01 10:37N 36°15' W 009°30'1211.7
2018-Jan-01 09:33N 36°13' W 009°14'17612.6
2017-Dec-31 19:35N 35°58' W 005°38'210.5
2017-Dec-31 19:23N 35°58' W 005°35'410.3
2017-Dec-31 19:00N 35°60' W 005°30'5 9.6
2017-Dec-31 18:29N 36°02' W 005°25'6 1.4
2017-Dec-31 14:28N 36°07' W 005°22'0 0.0
2017-Dec-31 13:58N 36°07' W 005°22'0 0.0
2017-Dec-31 13:28N 36°07' W 005°22'0 0.1
2017-Dec-31 12:58N 36°07' W 005°22'0 0.0
2017-Dec-31 07:16N 36°07' W 005°22'0 0.0
2017-Dec-31 06:58N 36°07' W 005°22'0 0.0
2017-Dec-31 06:28N 36°07' W 005°22'0 0.0
2017-Dec-31 05:06N 36°07' W 005°22'0 0.1
2017-Dec-31 05:00N 36°07' W 005°22'0 0.0
2017-Dec-31 03:39N 36°07' W 005°22'0 0.2
2017-Dec-31 03:28N 36°07' W 005°22'0 0.1
2017-Dec-31 03:00N 36°07' W 005°22'0 0.1
2017-Dec-31 01:55N 36°07' W 005°22'0 0.1
2017-Dec-31 01:29N 36°07' W 005°22'0 0.0
2017-Dec-31 01:00N 36°07' W 005°22'0 1.0
2017-Dec-31 00:30N 36°06' W 005°22'2 5.0
2017-Dec-31 00:00N 36°06' W 005°19'1 2.7
2017-Dec-30 23:30N 36°06' W 005°17'1 1.7
2017-Dec-30 23:00N 36°07' W 005°17'3 5.9
2017-Dec-30 22:30N 36°10' W 005°15'3 1.4
2017-Dec-30 20:29N 36°10' W 005°12'1 1.1
2017-Dec-30 19:56N 36°10' W 005°11'1 1.9
2017-Dec-30 19:30N 36°10' W 005°10'3 4.9
2017-Dec-30 18:49N 36°10' W 005°06'3 1.0
2017-Dec-30 15:56N 36°08' W 005°07'2 3.2
2017-Dec-30 15:28N 36°07' W 005°09'3 6.9
2017-Dec-30 15:00N 36°05' W 005°13'1 3.0
2017-Dec-30 14:30N 36°05' W 005°14'510.0
2017-Dec-30 14:00N 36°06' W 005°08'  
2017-Dec-26 23:06N 36°37' E 013°60'112.4
2017-Dec-26 23:00N 36°36' E 014°01'612.4
2017-Dec-26 22:30N 36°34' E 014°09'612.5
2017-Dec-26 22:00N 36°32' E 014°16'612.4
2017-Dec-26 21:30N 36°31' E 014°24'612.1
2017-Dec-26 21:00N 36°29' E 014°31'611.7
2017-Dec-26 20:30N 36°29' E 014°38'611.4
2017-Dec-26 20:00N 36°29' E 014°45'9111.2
2017-Dec-26 11:52N 37°26' E 016°15'412.0
2017-Dec-26 11:30N 37°29' E 016°19'611.4
2017-Dec-26 11:00N 37°33' E 016°24'8212.4
2017-Dec-26 04:25N 38°33' E 017°34'613.2
2017-Dec-26 03:59N 38°37' E 017°39'612.7
2017-Dec-26 03:30N 38°41' E 017°44'1012.6
2017-Dec-26 02:44N 38°48' E 017°53'513.2
2017-Dec-26 02:20N 38°52' E 017°57'513.0
2017-Dec-26 01:57N 38°56' E 018°02'613.1
2017-Dec-26 01:30N 39°00' E 018°07'913.1
2017-Dec-26 00:48N 39°07' E 018°15'413.3
2017-Dec-26 00:30N 39°10' E 018°18'  

Dump ship's entire track history